Time;durP1;ratioP1;P1;durP2;ratioP2;P2;SDS_P1;SDS_P2;PMS_P1;PMS_P2;Temp;Humidity;BMP_temperature;BMP_pressure;BME280_temperature;BME280_humidity;BME280_pressure;Samples;Min_cycle;Max_cycle;Signal;HPM_P1;HPM_P2
2022/11/07 00:00:13;;;;;;;2.80;2.08;;;;;;;4.37;100.00;100854.25;10655992;27;20532;-77
2022/11/07 00:05:15;;;;;;;3.40;2.30;;;;;;;4.33;100.00;100859.28;10657283;27;20054;-77
2022/11/07 00:10:18;;;;;;;3.20;2.10;;;;;;;4.38;100.00;100858.59;10638853;27;20051;-77
2022/11/07 00:15:20;;;;;;;2.20;1.80;;;;;;;4.36;100.00;100847.16;10635552;27;20410;-77
2022/11/07 00:20:22;;;;;;;2.47;1.77;;;;;;;4.35;100.00;100857.19;10652093;27;20050;-77
2022/11/07 00:25:24;;;;;;;2.75;1.95;;;;;;;4.40;100.00;100857.31;10653970;27;20039;-78
2022/11/07 00:30:26;;;;;;;2.30;1.70;;;;;;;4.41;100.00;100839.94;10599008;27;20101;-78
2022/11/07 00:35:29;;;;;;;2.80;1.85;;;;;;;4.43;100.00;100831.56;10613690;28;20413;-77
2022/11/07 00:40:31;;;;;;;3.83;1.88;;;;;;;4.47;100.00;100841.69;10597033;28;20047;-78
2022/11/07 00:45:33;;;;;;;2.60;1.80;;;;;;;4.43;100.00;100845.97;10640660;27;20038;-77
2022/11/07 00:50:35;;;;;;;3.95;1.80;;;;;;;4.47;100.00;100852.56;10649444;27;20031;-77
2022/11/07 00:55:38;;;;;;;2.67;1.77;;;;;;;4.50;100.00;100841.22;10640463;27;20074;-78
2022/11/07 01:00:40;;;;;;;3.55;1.52;;;;;;;4.57;100.00;100843.84;10641102;27;20050;-78
2022/11/07 01:05:42;;;;;;;5.82;1.80;;;;;;;4.58;100.00;100837.34;10665102;27;20038;-77
2022/11/07 01:10:44;;;;;;;4.03;1.75;;;;;;;4.58;100.00;100826.47;10638850;27;20420;-78
2022/11/07 01:15:47;;;;;;;2.80;1.73;;;;;;;4.63;100.00;100826.59;10691484;27;20034;-77
2022/11/07 01:20:49;;;;;;;2.88;1.60;;;;;;;4.60;100.00;100801.78;10644547;27;20063;-78
2022/11/07 01:25:51;;;;;;;3.20;2.08;;;;;;;4.60;100.00;100799.88;10651397;27;20552;-78
2022/11/07 01:30:54;;;;;;;2.10;1.50;;;;;;;4.63;100.00;100787.72;10635756;27;20035;-78
2022/11/07 01:36:00;;;;;;;3.13;1.80;;;;;;;4.62;100.00;100775.19;10634589;27;20036;-77
2022/11/07 01:41:21;;;;;;;2.42;1.58;;;;;;;4.64;100.00;100759.47;10646492;27;20129;-78
2022/11/07 01:46:29;;;;;;;2.97;1.65;;;;;;;4.70;100.00;100762.06;10653665;28;20187;-78
2022/11/07 01:51:34;;;;;;;2.80;1.60;;;;;;;4.73;100.00;100769.75;10631625;28;20043;-78
2022/11/07 01:56:38;;;;;;;3.50;1.92;;;;;;;4.78;100.00;100753.53;10645302;27;20059;-77
2022/11/07 02:01:41;;;;;;;2.97;1.60;;;;;;;4.81;100.00;100746.78;10600020;28;20045;-77
2022/11/07 02:06:46;;;;;;;2.28;1.70;;;;;;;4.90;100.00;100745.34;10632495;28;20042;-78
2022/11/07 02:11:48;;;;;;;3.63;1.85;;;;;;;4.90;100.00;100739.91;10579571;28;20410;-77
2022/11/07 02:16:50;;;;;;;3.97;1.90;;;;;;;4.94;99.79;100734.81;10610886;27;20047;-77
2022/11/07 02:21:58;;;;;;;2.95;1.75;;;;;;;4.92;99.31;100731.50;10626448;27;20043;-77
2022/11/07 02:27:05;;;;;;;2.45;1.85;;;;;;;4.98;99.70;100716.94;10575689;28;20384;-77
2022/11/07 02:32:10;;;;;;;3.80;2.13;;;;;;;4.97;99.40;100712.56;10617640;27;20031;-77
2022/11/07 02:37:18;;;;;;;3.28;2.03;;;;;;;5.01;99.56;100717.28;10615950;27;20055;-77
2022/11/07 02:42:20;;;;;;;2.72;1.70;;;;;;;5.05;99.25;100714.91;10588813;28;20044;-77
2022/11/07 02:47:22;;;;;;;3.50;1.90;;;;;;;5.07;98.25;100710.88;10613869;27;20035;-77
2022/11/07 02:52:25;;;;;;;4.40;1.75;;;;;;;5.10;98.74;100713.09;10619076;27;20040;-77
2022/11/07 02:57:27;;;;;;;2.47;1.63;;;;;;;5.11;98.03;100714.75;10594867;28;20040;-77
2022/11/07 03:02:29;;;;;;;2.15;1.70;;;;;;;5.19;97.72;100707.25;10644002;27;20054;-77
2022/11/07 03:07:31;;;;;;;1.75;1.42;;;;;;;5.19;97.53;100708.09;10640093;27;20034;-77
2022/11/07 03:12:33;;;;;;;2.88;1.73;;;;;;;5.19;97.21;100693.66;10648766;27;20055;-77
2022/11/07 03:17:36;;;;;;;2.53;1.75;;;;;;;5.19;97.80;100682.78;10624020;27;20043;-77
2022/11/07 03:22:38;;;;;;;2.10;1.83;;;;;;;5.15;96.86;100672.38;10638730;27;20039;-77
2022/11/07 03:27:47;;;;;;;2.58;2.17;;;;;;;5.15;97.48;100674.28;10655550;27;20070;-78
2022/11/07 03:32:53;;;;;;;3.03;1.98;;;;;;;5.13;97.47;100679.97;10656704;27;20051;-77
2022/11/07 03:37:55;;;;;;;2.10;1.48;;;;;;;5.09;97.04;100665.22;10664093;27;20039;-77
2022/11/07 03:42:57;;;;;;;3.17;2.22;;;;;;;5.12;97.73;100674.78;10654281;27;20043;-77
2022/11/07 03:47:59;;;;;;;4.50;1.92;;;;;;;5.10;97.26;100661.44;10654686;27;20047;-78
2022/11/07 03:53:01;;;;;;;4.65;1.75;;;;;;;5.12;97.93;100672.06;10647150;27;20043;-78
2022/11/07 03:58:03;;;;;;;3.35;1.60;;;;;;;5.09;96.86;100656.25;10651447;27;20043;-78
2022/11/07 04:03:06;;;;;;;2.58;1.88;;;;;;;5.10;97.01;100658.72;10637407;27;20044;-77
2022/11/07 04:08:08;;;;;;;2.35;1.60;;;;;;;5.13;97.08;100658.22;10659411;27;20039;-78
2022/11/07 04:18:48;;;;;;;2.30;1.80;;;;;;;5.21;96.54;100648.03;10578747;27;20062;-77
2022/11/07 04:23:50;;;;;;;3.47;2.10;;;;;;;5.23;95.99;100637.72;10654255;27;20520;-77
2022/11/07 04:28:52;;;;;;;2.40;2.00;;;;;;;5.24;96.63;100652.97;10653105;27;20035;-77
2022/11/07 04:33:54;;;;;;;3.42;2.08;;;;;;;5.25;96.17;100641.00;10625380;27;20035;-78
2022/11/07 04:38:56;;;;;;;4.97;1.92;;;;;;;5.30;95.99;100641.09;10642054;27;20043;-77
2022/11/07 04:43:58;;;;;;;3.35;2.22;;;;;;;5.35;95.36;100635.72;10635888;27;20043;-77
2022/11/07 04:49:00;;;;;;;5.10;1.95;;;;;;;5.34;96.29;100642.25;10653180;27;20039;-77
2022/11/07 04:54:03;;;;;;;2.55;2.03;;;;;;;5.34;95.61;100636.78;10650098;27;20050;-78
2022/11/07 04:59:05;;;;;;;4.82;2.15;;;;;;;5.30;95.17;100639.19;10651791;27;20043;-76
2022/11/07 05:04:07;;;;;;;3.55;1.83;;;;;;;5.30;96.09;100630.22;10642939;27;20050;-76
2022/11/07 05:09:15;;;;;;;2.40;1.90;;;;;;;5.28;95.40;100633.19;10613128;27;20043;-76
2022/11/07 05:14:46;;;;;;;3.85;1.88;;;;;;;5.29;96.34;100637.53;10651998;27;20046;-76
2022/11/07 05:19:49;;;;;;;2.55;2.22;;;;;;;5.28;96.34;100632.34;10640564;27;20047;-76
2022/11/07 05:24:51;;;;;;;3.42;2.35;;;;;;;5.28;95.65;100638.63;10632975;27;20050;-76
2022/11/07 05:29:53;;;;;;;4.25;2.22;;;;;;;5.29;96.16;100634.81;10650385;27;20043;-85
2022/11/07 05:34:55;;;;;;;2.90;2.10;;;;;;;5.31;96.81;100626.41;10654350;27;20043;-77
2022/11/07 05:39:57;;;;;;;4.00;2.30;;;;;;;5.29;96.43;100626.66;10629707;27;20051;-77
2022/11/07 05:45:00;;;;;;;3.47;2.30;;;;;;;5.29;96.49;100628.56;10611224;28;20043;-76
2022/11/07 05:50:02;;;;;;;4.70;1.95;;;;;;;5.34;96.53;100620.47;10629659;27;20031;-77
2022/11/07 05:55:04;;;;;;;4.47;2.10;;;;;;;5.35;97.10;100613.97;10626685;27;20039;-76
2022/11/07 06:00:07;;;;;;;4.10;2.28;;;;;;;5.41;96.91;100615.72;10661704;27;20062;-77
2022/11/07 06:05:14;;;;;;;3.70;1.90;;;;;;;5.42;96.12;100628.25;10661623;27;20054;-77
2022/11/07 06:10:20;;;;;;;3.05;1.90;;;;;;;5.40;96.46;100635.84;10661994;27;20582;-76
2022/11/07 06:15:22;;;;;;;3.45;2.00;;;;;;;5.37;96.60;100626.25;10660910;27;20170;-76
2022/11/07 06:20:24;;;;;;;2.75;1.88;;;;;;;5.39;96.62;100629.56;10642501;27;20421;-78
2022/11/07 06:25:27;;;;;;;2.30;1.80;;;;;;;5.40;96.98;100627.66;10642992;27;20035;-77
2022/11/07 06:30:34;;;;;;;3.45;1.80;;;;;;;5.45;96.63;100622.31;10658439;27;20042;-78
2022/11/07 06:35:36;;;;;;;2.92;1.77;;;;;;;5.49;96.09;100618.00;10600553;28;20054;-78
2022/11/07 06:40:40;;;;;;;3.88;1.80;;;;;;;5.44;95.81;100616.03;10618228;28;20059;-77
2022/11/07 06:45:46;;;;;;;2.53;2.00;;;;;;;5.44;95.96;100618.75;10657913;27;20038;-77
2022/11/07 06:50:55;;;;;;;5.90;2.50;;;;;;;5.39;96.04;100615.97;10682167;27;20050;-77
2022/11/07 06:56:02;;;;;;;3.13;2.00;;;;;;;5.41;96.26;100613.81;10640711;27;20046;-77
2022/11/07 07:01:07;;;;;;;4.05;2.03;;;;;;;5.49;96.49;100609.00;10659633;27;20050;-77
2022/11/07 07:06:12;;;;;;;3.30;2.08;;;;;;;5.41;96.35;100607.53;10641639;27;20039;-77
2022/11/07 07:11:15;;;;;;;4.70;3.20;;;;;;;5.39;96.18;100602.34;10617020;27;20048;-77
2022/11/07 07:16:17;;;;;;;7.50;4.25;;;;;;;5.42;96.32;100611.91;10630464;27;20042;-77
2022/11/07 07:21:20;;;;;;;4.80;2.20;;;;;;;5.40;95.78;100597.72;10659166;27;20043;-77
2022/11/07 07:26:22;;;;;;;3.55;2.20;;;;;;;5.38;95.73;100599.84;10658781;27;20043;-77
2022/11/07 07:31:29;;;;;;;3.22;2.40;;;;;;;5.37;96.62;100618.06;10654480;27;20042;-77
2022/11/07 07:36:32;;;;;;;3.95;2.38;;;;;;;5.40;95.96;100617.59;10658312;27;20039;-77
2022/11/07 07:41:34;;;;;;;2.45;1.88;;;;;;;5.37;96.44;100612.63;10640026;27;20047;-77
2022/11/07 07:46:36;;;;;;;3.78;2.25;;;;;;;5.38;96.11;100616.19;10657462;27;20065;-77
2022/11/07 07:51:39;;;;;;;6.57;2.40;;;;;;;5.39;96.36;100604.25;10637440;27;20047;-78
2022/11/07 07:56:41;;;;;;;4.95;2.50;;;;;;;5.45;96.46;100589.66;10639286;27;20317;-77
2022/11/07 08:01:43;;;;;;;5.20;2.70;;;;;;;5.48;96.29;100588.31;10656385;27;20047;-77
2022/11/07 08:06:45;;;;;;;2.40;1.80;;;;;;;5.55;95.69;100583.50;10639794;27;20047;-77
2022/11/07 08:11:47;;;;;;;3.42;2.40;;;;;;;5.59;95.67;100596.41;10648718;27;20039;-78
2022/11/07 08:16:50;;;;;;;6.25;2.10;;;;;;;5.61;95.42;100607.84;10633706;27;20047;-77
2022/11/07 08:21:52;;;;;;;2.33;2.10;;;;;;;5.68;96.31;100603.06;10657330;27;20058;-77
2022/11/07 08:26:54;;;;;;;6.45;2.30;;;;;;;5.64;95.27;100609.25;10656372;27;20522;-77
2022/11/07 08:31:57;;;;;;;4.20;2.63;;;;;;;5.64;95.67;100603.81;10638026;27;20031;-77
2022/11/07 08:37:24;;;;;;;2.87;2.17;;;;;;;5.60;95.31;100602.66;10656781;27;20046;-77
2022/11/07 08:42:50;;;;;;;3.28;2.85;;;;;;;5.53;95.32;100596.56;10636077;27;20047;-77
2022/11/07 08:47:57;;;;;;;5.00;2.35;;;;;;;5.57;95.78;100586.84;10649081;27;20031;-76
2022/11/07 08:53:03;;;;;;;5.88;2.85;;;;;;;5.56;95.31;100590.63;10693274;27;20042;-78
2022/11/07 08:58:06;;;;;;;3.80;2.30;;;;;;;5.54;95.70;100582.69;10680692;27;20042;-79
2022/11/07 09:03:10;;;;;;;4.13;2.60;;;;;;;5.56;95.97;100587.91;10611956;27;20395;-77
2022/11/07 09:08:12;;;;;;;5.22;2.63;;;;;;;5.52;95.56;100587.56;10624308;27;20038;-77
2022/11/07 09:13:15;;;;;;;7.00;2.42;;;;;;;5.53;96.11;100580.22;10636611;27;20043;-77
2022/11/07 09:18:17;;;;;;;3.72;2.38;;;;;;;5.56;95.99;100579.75;10653250;27;20050;-78
2022/11/07 09:23:20;;;;;;;5.45;2.40;;;;;;;5.59;96.39;100569.19;10653259;27;20035;-73
2022/11/07 09:28:22;;;;;;;4.70;2.42;;;;;;;5.56;96.01;100566.97;10655075;27;20062;-73
2022/11/07 09:33:25;;;;;;;4.53;2.50;;;;;;;5.57;96.64;100567.78;10654312;27;20493;-74
2022/11/07 09:38:27;;;;;;;4.88;2.65;;;;;;;5.59;96.10;100573.81;10669153;27;20073;-74
2022/11/07 09:43:54;;;;;;;4.45;2.45;;;;;;;5.57;96.14;100563.16;10697315;27;20045;-72
2022/11/07 09:49:08;;;;;;;3.65;2.33;;;;;;;5.53;96.98;100559.28;10696869;27;20417;-72
2022/11/07 09:54:14;;;;;;;4.95;2.67;;;;;;;5.49;97.05;100563.56;10634171;28;20409;-74
2022/11/07 09:59:37;;;;;;;2.72;2.20;;;;;;;5.43;98.08;100557.25;10617970;28;20493;-74
2022/11/07 10:04:39;;;;;;;4.45;2.45;;;;;;;5.48;97.73;100559.19;10653681;28;20043;-73
2022/11/07 10:09:52;;;;;;;4.10;2.60;;;;;;;5.47;98.37;100548.56;10652405;28;20035;-72
2022/11/07 10:15:15;;;;;;;3.03;2.33;;;;;;;5.45;98.94;100559.72;10634134;28;20420;-76
2022/11/07 10:20:49;;;;;;;5.82;2.75;;;;;;;5.42;98.40;100552.03;10633937;28;20035;-73
2022/11/07 10:25:59;;;;;;;4.75;2.30;;;;;;;5.39;98.92;100541.66;10652245;28;20492;-75
2022/11/07 10:31:05;;;;;;;5.20;2.22;;;;;;;5.38;99.69;100540.00;10632738;28;20046;-73
2022/11/07 10:36:11;;;;;;;4.45;2.60;;;;;;;5.42;99.38;100541.16;10633510;27;20043;-73
2022/11/07 10:41:16;;;;;;;4.80;2.42;;;;;;;5.45;99.28;100551.53;10632137;27;20449;-73
2022/11/07 10:46:25;;;;;;;3.42;2.30;;;;;;;5.41;99.40;100529.47;10653559;27;20032;-72
2022/11/07 10:51:38;;;;;;;4.22;2.28;;;;;;;5.41;99.01;100534.91;10638231;27;20058;-73
2022/11/07 10:56:45;;;;;;;8.45;2.47;;;;;;;5.43;99.30;100540.91;10646034;27;20036;-76
2022/11/07 11:01:55;;;;;;;3.47;2.05;;;;;;;5.43;99.94;100537.38;10651037;27;20074;-74
2022/11/07 11:07:03;;;;;;;4.40;2.65;;;;;;;5.45;99.33;100546.09;10637513;27;20047;-74
2022/11/07 11:12:11;;;;;;;;;;;;;;;5.48;99.52;100536.59;10654675;27;20413;-74
2022/11/07 11:17:25;;;;;;;;;;;;;;;5.47;100.00;100530.34;10659681;27;20286;-73
2022/11/07 11:22:28;;;;;;;6.00;2.30;;;;;;;5.44;99.41;100528.94;10640569;27;19942;-74
2022/11/07 11:27:32;;;;;;;3.08;2.28;;;;;;;5.45;99.69;100533.31;10659701;27;20039;-74
2022/11/07 11:32:44;;;;;;;3.28;2.22;;;;;;;5.42;99.55;100528.38;10640411;27;20047;-74
2022/11/07 11:37:51;;;;;;;4.72;2.30;;;;;;;5.43;100.00;100521.88;10635554;27;20047;-74
2022/11/07 11:42:59;;;;;;;5.10;2.60;;;;;;;5.43;100.00;100526.47;10640253;27;20051;-74
2022/11/07 11:48:25;;;;;;;5.05;2.20;;;;;;;5.41;100.00;100515.03;10638072;27;20050;-74
2022/11/07 11:53:28;;;;;;;4.63;2.45;;;;;;;5.36;100.00;100512.22;10655640;27;20039;-74
2022/11/07 11:58:50;;;;;;;3.55;2.45;;;;;;;5.38;100.00;100523.66;10632442;27;20412;-74
2022/11/07 12:04:20;;;;;;;3.72;2.38;;;;;;;5.36;100.00;100509.50;10588189;27;20536;-74
2022/11/07 12:09:45;;;;;;;3.55;2.63;;;;;;;5.33;100.00;100493.66;10657106;27;20038;-74
2022/11/07 12:15:02;;;;;;;5.53;2.65;;;;;;;5.36;100.00;100498.59;10672376;27;20050;-73
2022/11/07 12:20:20;;;;;;;5.60;2.97;;;;;;;5.34;100.00;100506.19;10634739;27;20050;-74
2022/11/07 12:25:28;;;;;;;4.65;2.40;;;;;;;5.33;100.00;100510.00;10619423;27;20083;-72
2022/11/07 12:30:58;;;;;;;3.78;2.40;;;;;;;5.33;100.00;100510.00;10639296;27;20058;-72
2022/11/07 12:36:12;;;;;;;6.20;2.53;;;;;;;5.34;100.00;100500.75;10644693;27;20278;-73
2022/11/07 12:41:28;;;;;;;5.68;2.90;;;;;;;5.33;100.00;100510.81;10675146;27;20069;-73
2022/11/07 12:46:54;;;;;;;5.15;2.75;;;;;;;5.36;100.00;100515.75;10656444;27;20050;-74
2022/11/07 12:52:31;;;;;;;4.57;2.70;;;;;;;5.36;100.00;100510.31;10645822;27;20400;-74
2022/11/07 12:57:36;;;;;;;5.80;2.30;;;;;;;5.36;100.00;100525.81;10608169;27;20076;-73
2022/11/07 13:02:50;;;;;;;4.05;2.53;;;;;;;5.38;100.00;100523.66;10634975;27;20054;-73
2022/11/07 13:08:35;;;;;;;4.35;2.55;;;;;;;5.46;100.00;100531.41;10653139;27;20051;-73
2022/11/07 13:14:06;;;;;;;8.00;3.03;;;;;;;5.48;100.00;100534.72;10670435;27;20053;-74
2022/11/07 13:19:29;;;;;;;5.75;2.60;;;;;;;5.48;100.00;100534.72;10688144;27;20050;-73
2022/11/07 13:24:37;;;;;;;4.80;2.55;;;;;;;5.52;100.00;100530.41;10695222;27;20489;-74
2022/11/07 13:29:40;;;;;;;5.13;2.35;;;;;;;5.48;100.00;100532.00;10649653;27;20063;-74
2022/11/07 13:34:58;;;;;;;4.60;2.45;;;;;;;5.51;99.73;100533.38;10664378;27;20045;-75
2022/11/07 13:40:12;;;;;;;8.63;2.55;;;;;;;5.59;100.00;100525.63;10672711;27;20069;-74
2022/11/07 13:45:26;;;;;;;2.35;1.88;;;;;;;5.65;99.81;100527.34;10643676;27;20417;-74
2022/11/07 13:50:45;;;;;;;4.88;2.90;;;;;;;5.64;99.63;100513.97;10617605;28;20031;-74
2022/11/07 13:55:59;;;;;;;6.25;2.88;;;;;;;5.67;99.06;100513.47;10633916;28;20043;-74
2022/11/07 14:01:12;;;;;;;4.82;2.63;;;;;;;5.68;98.51;100502.31;10629249;27;20068;-74
2022/11/07 14:06:15;;;;;;;5.50;2.70;;;;;;;5.67;97.89;100500.69;10608629;28;20691;-73
2022/11/07 14:11:19;;;;;;;7.13;2.72;;;;;;;5.73;98.31;100507.84;10597667;28;20036;-73
2022/11/07 14:16:25;;;;;;;5.72;2.88;;;;;;;5.76;97.82;100503.81;10600282;28;20074;-73
2022/11/07 14:21:35;;;;;;;6.35;2.70;;;;;;;5.71;97.59;100507.25;10595238;28;20063;-72
2022/11/07 14:26:37;;;;;;;4.93;2.70;;;;;;;5.73;96.83;100496.97;10608438;27;20032;-73
2022/11/07 14:31:39;;;;;;;4.70;3.03;;;;;;;5.71;97.61;100490.09;10610570;28;20062;-73
2022/11/07 14:36:49;;;;;;;7.47;3.20;;;;;;;5.71;97.63;100476.50;10612783;28;20036;-73
2022/11/07 14:41:54;;;;;;;5.43;2.80;;;;;;;5.70;96.54;100489.28;10601425;28;20098;-75
2022/11/07 14:46:56;;;;;;;8.50;2.90;;;;;;;5.66;96.09;100488.16;10597303;28;20047;-74
2022/11/07 14:51:59;;;;;;;7.38;3.05;;;;;;;5.67;96.78;100475.34;10614009;27;20043;-75
2022/11/07 14:57:01;;;;;;;3.67;2.58;;;;;;;5.65;96.60;100470.16;10592729;28;20145;-77
2022/11/07 15:02:39;;;;;;;4.22;2.60;;;;;;;5.63;96.24;100472.31;10599696;27;20048;-78
2022/11/07 15:07:48;;;;;;;5.38;2.58;;;;;;;5.63;95.30;100466.88;10521108;28;20054;-76
2022/11/07 15:12:59;;;;;;;6.18;2.47;;;;;;;5.60;95.39;100472.84;10616167;27;20058;-77
2022/11/07 15:18:03;;;;;;;4.80;2.35;;;;;;;5.66;95.26;100477.25;10620687;27;20074;-76
2022/11/07 15:23:33;;;;;;;4.15;2.53;;;;;;;5.66;95.20;100476.44;10615725;28;20074;-76
2022/11/07 15:28:50;;;;;;;5.65;2.20;;;;;;;5.60;94.23;100472.00;10612433;28;20038;-76
2022/11/07 15:33:54;;;;;;;6.72;3.10;;;;;;;5.68;94.65;100464.22;10561604;27;20043;-76
2022/11/07 15:38:57;;;;;;;5.00;2.75;;;;;;;5.65;93.78;100459.28;10620847;27;20045;-76
2022/11/07 15:44:00;;;;;;;3.55;2.38;;;;;;;5.66;94.22;100451.94;10617765;27;20043;-76
2022/11/07 15:49:02;;;;;;;4.13;2.30;;;;;;;5.64;94.01;100449.47;10616753;27;20058;-76
2022/11/07 15:54:09;;;;;;;2.92;2.10;;;;;;;5.60;93.21;100442.91;10617835;27;20043;-75
2022/11/07 15:59:17;;;;;;;4.38;2.08;;;;;;;5.62;93.30;100429.03;10641191;27;20043;-76
2022/11/07 16:04:19;;;;;;;4.07;2.53;;;;;;;5.62;93.21;100424.41;10662152;27;20166;-77
2022/11/07 16:09:31;;;;;;;6.53;2.38;;;;;;;5.60;92.60;100426.56;10653668;27;20050;-77
2022/11/07 16:14:33;;;;;;;4.82;2.65;;;;;;;5.59;93.47;100424.09;10636109;27;20027;-77
2022/11/07 16:19:35;;;;;;;4.75;2.65;;;;;;;5.59;92.93;100424.91;10650264;27;20043;-77
2022/11/07 16:24:37;;;;;;;3.75;2.50;;;;;;;5.61;92.87;100425.47;10652377;27;20039;-77
2022/11/07 16:29:40;;;;;;;3.70;1.98;;;;;;;5.51;92.13;100419.06;10619494;27;20038;-77
2022/11/07 16:34:42;;;;;;;5.18;2.10;;;;;;;5.53;92.34;100425.91;10662078;27;20051;-76
2022/11/07 16:39:44;;;;;;;4.53;2.28;;;;;;;5.54;91.81;100413.94;10658455;27;20039;-77
2022/11/07 16:44:47;;;;;;;2.88;2.05;;;;;;;5.50;91.92;100403.81;10652726;27;20051;-77
2022/11/07 16:49:49;;;;;;;4.20;2.00;;;;;;;5.45;92.29;100389.09;10652394;27;20043;-77
2022/11/07 16:54:51;;;;;;;3.63;2.03;;;;;;;5.45;91.95;100389.09;10645514;27;20039;-77
2022/11/07 16:59:53;;;;;;;3.80;2.10;;;;;;;5.49;92.32;100378.50;10628986;27;20047;-77
2022/11/07 17:04:55;;;;;;;2.35;1.80;;;;;;;5.58;91.48;100387.06;10651897;27;20050;-77
2022/11/07 17:09:58;;;;;;;7.32;2.60;;;;;;;5.57;91.28;100388.16;10648562;27;20047;-77
2022/11/07 17:15:00;;;;;;;4.82;2.33;;;;;;;5.52;91.38;100378.00;10652866;27;20047;-77
2022/11/07 17:20:03;;;;;;;5.38;2.22;;;;;;;5.48;91.76;100374.16;10614042;27;20047;-75
2022/11/07 17:25:06;;;;;;;3.22;1.63;;;;;;;5.49;91.59;100370.34;10632415;27;20031;-78
2022/11/07 17:30:15;;;;;;;2.30;1.73;;;;;;;5.43;91.00;100368.66;10655976;27;20047;-75
2022/11/07 17:35:17;;;;;;;2.97;1.90;;;;;;;5.44;91.27;100359.41;10645101;27;20039;-77
2022/11/07 17:40:24;;;;;;;5.78;2.25;;;;;;;5.38;90.46;100365.84;10653276;27;20035;-77
2022/11/07 17:45:27;;;;;;;4.30;2.17;;;;;;;5.51;91.21;100368.19;10652853;27;20050;-77
2022/11/07 17:50:29;;;;;;;6.28;2.25;;;;;;;5.53;90.89;100368.75;10652959;28;20074;-77
2022/11/07 17:55:31;;;;;;;3.67;2.15;;;;;;;5.43;90.68;100368.66;10652355;27;20046;-76
2022/11/07 18:00:34;;;;;;;6.10;2.15;;;;;;;5.36;90.63;100374.28;10652011;28;20047;-77
2022/11/07 18:05:36;;;;;;;5.25;2.00;;;;;;;5.38;90.79;100366.69;10653487;28;20516;-77
2022/11/07 18:10:38;;;;;;;3.30;1.90;;;;;;;5.45;90.51;100371.94;10652796;28;20047;-77
2022/11/07 18:15:42;;;;;;;3.72;2.17;;;;;;;5.36;89.47;100376.16;10640060;28;20036;-77
2022/11/07 18:20:44;;;;;;;3.65;1.92;;;;;;;5.33;89.94;100366.63;10615956;28;20454;-78
2022/11/07 18:25:46;;;;;;;3.80;2.17;;;;;;;5.29;89.76;100378.25;10648257;28;20027;-77
2022/11/07 18:30:48;;;;;;;3.38;2.03;;;;;;;5.29;89.29;100372.81;10626909;28;20047;-77
2022/11/07 18:35:51;;;;;;;5.22;2.40;;;;;;;5.25;89.35;100374.41;10647999;27;20047;-78
2022/11/07 18:40:57;;;;;;;4.40;2.10;;;;;;;5.22;89.20;100366.75;10638560;27;20065;-77
2022/11/07 18:46:00;;;;;;;5.03;2.20;;;;;;;5.18;88.80;100362.88;10634692;28;20043;-76
2022/11/07 18:51:07;;;;;;;3.72;2.70;;;;;;;5.14;88.81;100363.38;10651542;28;20417;-82
2022/11/07 18:56:10;;;;;;;2.95;2.03;;;;;;;5.16;88.39;100357.69;10652646;27;20527;-77
2022/11/07 19:01:16;;;;;;;3.65;1.88;;;;;;;5.15;88.42;100356.88;10652114;27;20051;-79
2022/11/07 19:06:19;;;;;;;3.60;2.33;;;;;;;5.12;87.91;100345.69;10640653;27;20032;-79
2022/11/07 19:11:28;;;;;;;3.25;2.03;;;;;;;5.05;87.58;100329.56;10638601;27;20035;-79
2022/11/07 19:16:59;;;;;;;4.30;2.25;;;;;;;4.97;88.20;100332.69;10634440;27;20540;-83
2022/11/07 19:22:04;;;;;;;3.80;2.15;;;;;;;5.02;87.22;100340.09;10566959;27;20047;-79
2022/11/07 19:27:10;;;;;;;4.25;2.70;;;;;;;4.96;88.18;100328.34;10657306;27;20039;-81
2022/11/07 19:32:12;;;;;;;3.92;2.60;;;;;;;4.93;87.61;100326.13;10641597;27;20047;-81
2022/11/07 19:37:15;;;;;;;4.82;2.42;;;;;;;4.83;87.50;100336.84;10636210;27;20488;-79
2022/11/07 19:42:17;;;;;;;4.60;2.63;;;;;;;4.76;87.11;100337.03;10595550;27;20051;-79
2022/11/07 19:47:20;;;;;;;3.10;2.50;;;;;;;4.70;86.79;100334.50;10652402;27;20050;-82
2022/11/07 19:52:22;;;;;;;3.00;2.17;;;;;;;4.63;86.69;100328.41;10620125;27;20042;-78
2022/11/07 19:57:25;;;;;;;6.40;2.95;;;;;;;4.59;87.38;100330.00;10659180;27;20050;-79
2022/11/07 20:02:27;;;;;;;4.60;2.60;;;;;;;4.58;86.67;100325.63;10661939;27;20138;-77
2022/11/07 20:07:30;;;;;;;4.43;2.55;;;;;;;4.60;86.92;100326.19;10639291;27;20039;-76
2022/11/07 20:12:32;;;;;;;4.03;2.70;;;;;;;4.52;86.26;100317.41;10649091;27;20051;-79
2022/11/07 20:18:05;;;;;;;3.47;2.58;;;;;;;4.51;86.63;100304.91;10654800;27;20416;-79
2022/11/07 20:23:08;;;;;;;4.68;2.35;;;;;;;4.49;85.96;100308.91;10627308;27;20409;-79
2022/11/07 20:28:11;;;;;;;5.28;3.17;;;;;;;4.50;86.13;100316.00;10630183;27;20253;-86
2022/11/07 20:33:17;;;;;;;5.00;2.42;;;;;;;4.50;85.27;100305.94;10634855;27;20524;-88
2022/11/07 20:38:24;;;;;;;2.78;2.15;;;;;;;4.49;85.44;100314.34;10659519;27;20032;-87
2022/11/07 20:43:26;;;;;;;5.68;3.05;;;;;;;4.41;85.19;100309.34;10649954;27;20058;-86
2022/11/07 20:48:29;;;;;;;7.75;2.40;;;;;;;4.37;84.68;100310.94;10617453;27;20050;-86
2022/11/07 20:53:31;;;;;;;2.40;1.90;;;;;;;4.32;84.91;100299.97;10656387;27;20035;-86
2022/11/07 20:58:36;;;;;;;5.60;2.70;;;;;;;4.34;84.00;100286.94;10661025;27;20043;-83
2022/11/07 21:03:38;;;;;;;4.88;1.77;;;;;;;4.29;83.33;100282.28;10635748;27;20452;-87
2022/11/07 21:08:43;;;;;;;3.08;1.92;;;;;;;4.36;83.48;100290.25;10631766;27;20102;-84
2022/11/07 21:13:45;;;;;;;4.80;2.60;;;;;;;4.31;82.91;100285.56;10655443;27;20536;-86
2022/11/07 21:19:14;;;;;;;2.70;1.83;;;;;;;4.32;82.08;100292.63;10636253;27;20070;-84
2022/11/07 21:24:16;;;;;;;3.58;1.70;;;;;;;4.28;82.24;100296.09;10609506;27;20051;-86
2022/11/07 21:29:18;;;;;;;4.38;1.90;;;;;;;4.22;82.69;100287.88;10637052;27;20045;-87
2022/11/07 21:34:21;;;;;;;3.67;1.75;;;;;;;4.21;83.33;100275.38;10654269;27;20055;-84
2022/11/07 21:39:23;;;;;;;1.92;1.55;;;;;;;4.20;83.02;100276.44;10634642;27;20047;-79
2022/11/07 21:44:29;;;;;;;4.60;1.77;;;;;;;4.17;82.39;100267.97;10650303;27;20039;-78
2022/11/07 21:49:31;;;;;;;2.10;1.90;;;;;;;4.19;82.56;100263.13;10643612;27;20071;-77
2022/11/07 21:54:34;;;;;;;3.92;1.70;;;;;;;4.19;82.72;100263.13;10644387;27;20035;-77
2022/11/07 21:59:37;;;;;;;2.22;1.77;;;;;;;4.14;82.15;100269.28;10635714;27;20044;-73
2022/11/07 22:04:40;;;;;;;3.42;1.60;;;;;;;4.18;82.50;100253.34;10651001;28;20537;-74
2022/11/07 22:09:47;;;;;;;2.50;1.60;;;;;;;4.12;82.04;100240.72;10646285;27;20042;-75
2022/11/07 22:14:53;;;;;;;3.03;1.35;;;;;;;4.15;82.07;100238.34;10636521;28;20051;-71
2022/11/07 22:19:55;;;;;;;2.47;1.48;;;;;;;4.20;82.34;100227.56;10650152;28;20052;-72
2022/11/07 22:24:57;;;;;;;2.33;1.50;;;;;;;4.26;82.13;100227.63;10647255;27;20050;-74
2022/11/07 22:29:59;;;;;;;2.05;1.38;;;;;;;4.19;81.87;100230.53;10646619;27;20035;-73
2022/11/07 22:35:02;;;;;;;2.75;1.48;;;;;;;4.20;82.50;100216.72;10659743;27;20058;-74
2022/11/07 22:40:05;;;;;;;1.33;1.02;;;;;;;4.19;82.45;100206.09;10640024;27;20047;-73
2022/11/07 22:45:36;;;;;;;3.50;1.63;;;;;;;4.18;83.23;100215.31;10653204;27;20031;-76
2022/11/07 22:50:40;;;;;;;2.90;1.45;;;;;;;4.21;83.61;100209.38;10654846;27;20046;-74
2022/11/07 22:55:42;;;;;;;3.05;1.70;;;;;;;4.19;82.97;100204.19;10657086;27;20474;-75
2022/11/07 23:00:45;;;;;;;2.53;1.70;;;;;;;4.17;83.82;100194.66;10648439;27;20533;-85
2022/11/07 23:05:47;;;;;;;2.90;1.90;;;;;;;4.13;84.03;100185.34;10623636;27;20043;-75
2022/11/07 23:10:59;;;;;;;1.95;1.40;;;;;;;4.14;84.08;100176.94;10655112;27;20058;-87
2022/11/07 23:16:02;;;;;;;1.85;1.25;;;;;;;4.16;83.79;100169.38;10651956;27;20059;-82
2022/11/07 23:21:10;;;;;;;2.85;1.73;;;;;;;4.15;84.08;100162.31;10626262;27;20215;-84
2022/11/07 23:26:14;;;;;;;2.30;1.75;;;;;;;4.16;84.30;100158.50;10659908;27;20129;-84
2022/11/07 23:31:17;;;;;;;2.60;1.90;;;;;;;4.17;83.69;100151.22;10624218;27;20408;-80
2022/11/07 23:36:19;;;;;;;1.98;1.42;;;;;;;4.19;83.65;100147.19;10640074;27;20057;-80
2022/11/07 23:41:22;;;;;;;4.18;1.80;;;;;;;4.21;84.14;100136.88;10624041;27;20401;-77
2022/11/07 23:51:45;;;;;;;3.70;1.70;;;;;;;4.18;84.11;100112.13;10639722;27;20043;-77